Terminal Aerodrome Forecast
Issued by NWS Sioux Falls, SD

Home | Current Version | Previous Version | Graphics & Text | Print | Product List | Glossary Off
Versions: 1 2 3 4 5 6 7 8 9 10 11 12 13 14 15 16 17 18

000
FTUS43 KFSD 222343
TAFFSD
TAF
KFSD 222343Z 2300/2324 30014G22KT P6SM FEW020 SCT150
     FM230500 01011KT P6SM BKN015
     FM231300 04009KT P6SM OVC008
     FM231600 05011KT 5SM -SN BR OVC010
     FM231900 06016G24KT 2SM -SN OVC008=

USA.gov is the U.S. government's official web portal to all federal, state and local government web resources and services.